sensor_id;sensor_type;location;lat;lon;timestamp;temperature;humidity
12053;DHT22;6087;48.982;12.064;2022-08-01T00:02:03;22.30;66.40
12053;DHT22;6087;48.982;12.064;2022-08-01T00:04:30;22.20;66.60
12053;DHT22;6087;48.982;12.064;2022-08-01T00:06:57;22.10;67.30
12053;DHT22;6087;48.982;12.064;2022-08-01T00:09:25;22.10;67.70
12053;DHT22;6087;48.982;12.064;2022-08-01T00:11:52;22.00;68.40
12053;DHT22;6087;48.982;12.064;2022-08-01T00:14:19;22.00;69.30
12053;DHT22;6087;48.982;12.064;2022-08-01T00:16:46;21.90;69.80
12053;DHT22;6087;48.982;12.064;2022-08-01T00:19:13;22.00;70.40
12053;DHT22;6087;48.982;12.064;2022-08-01T00:21:40;21.90;71.90
12053;DHT22;6087;48.982;12.064;2022-08-01T00:24:07;21.80;71.70
12053;DHT22;6087;48.982;12.064;2022-08-01T00:26:35;21.80;72.40
12053;DHT22;6087;48.982;12.064;2022-08-01T00:29:02;21.70;72.90
12053;DHT22;6087;48.982;12.064;2022-08-01T00:31:29;21.60;73.30
12053;DHT22;6087;48.982;12.064;2022-08-01T00:33:56;21.70;74.00
12053;DHT22;6087;48.982;12.064;2022-08-01T00:36:23;21.70;74.70
12053;DHT22;6087;48.982;12.064;2022-08-01T00:38:50;21.70;74.70
12053;DHT22;6087;48.982;12.064;2022-08-01T00:41:17;21.70;75.00
12053;DHT22;6087;48.982;12.064;2022-08-01T00:43:45;21.60;75.10
12053;DHT22;6087;48.982;12.064;2022-08-01T00:46:12;21.60;75.30
12053;DHT22;6087;48.982;12.064;2022-08-01T00:48:39;21.60;75.50
12053;DHT22;6087;48.982;12.064;2022-08-01T00:51:07;21.60;75.60
12053;DHT22;6087;48.982;12.064;2022-08-01T00:53:34;21.60;76.10
12053;DHT22;6087;48.982;12.064;2022-08-01T00:56:02;21.60;76.50
12053;DHT22;6087;48.982;12.064;2022-08-01T00:58:29;21.60;77.00
12053;DHT22;6087;48.982;12.064;2022-08-01T01:00:59;21.50;77.10
12053;DHT22;6087;48.982;12.064;2022-08-01T01:03:26;21.50;77.20
12053;DHT22;6087;48.982;12.064;2022-08-01T01:06:01;21.60;77.50
12053;DHT22;6087;48.982;12.064;2022-08-01T01:08:32;21.50;78.00
12053;DHT22;6087;48.982;12.064;2022-08-01T01:11:06;21.50;78.10
12053;DHT22;6087;48.982;12.064;2022-08-01T01:13:38;21.50;78.70
12053;DHT22;6087;48.982;12.064;2022-08-01T01:16:13;21.40;79.30
12053;DHT22;6087;48.982;12.064;2022-08-01T01:18:44;21.40;79.60
12053;DHT22;6087;48.982;12.064;2022-08-01T01:24:16;21.40;80.80
12053;DHT22;6087;48.982;12.064;2022-08-01T01:26:50;21.30;81.20
12053;DHT22;6087;48.982;12.064;2022-08-01T01:29:23;21.30;81.60
12053;DHT22;6087;48.982;12.064;2022-08-01T01:31:59;21.20;82.20
12053;DHT22;6087;48.982;12.064;2022-08-01T01:34:30;21.20;83.00
12053;DHT22;6087;48.982;12.064;2022-08-01T01:36:59;21.10;83.60
12053;DHT22;6087;48.982;12.064;2022-08-01T01:39:29;21.10;83.70
12053;DHT22;6087;48.982;12.064;2022-08-01T01:41:58;21.10;84.20
12053;DHT22;6087;48.982;12.064;2022-08-01T01:44:27;21.10;84.80
12053;DHT22;6087;48.982;12.064;2022-08-01T01:46:56;21.10;84.70
12053;DHT22;6087;48.982;12.064;2022-08-01T01:49:26;21.20;85.20
12053;DHT22;6087;48.982;12.064;2022-08-01T01:51:55;21.10;85.30
12053;DHT22;6087;48.982;12.064;2022-08-01T01:54:28;21.10;85.80
12053;DHT22;6087;48.982;12.064;2022-08-01T01:56:58;21.10;85.90
12053;DHT22;6087;48.982;12.064;2022-08-01T01:59:30;21.10;86.40
12053;DHT22;6087;48.982;12.064;2022-08-01T02:02:02;21.00;87.00
12053;DHT22;6087;48.982;12.064;2022-08-01T02:04:30;20.90;87.80
12053;DHT22;6087;48.982;12.064;2022-08-01T02:06:58;20.90;88.10
12053;DHT22;6087;48.982;12.064;2022-08-01T02:09:28;21.00;88.20
12053;DHT22;6087;48.982;12.064;2022-08-01T02:11:56;20.90;88.90
12053;DHT22;6087;48.982;12.064;2022-08-01T02:14:25;20.90;89.00
12053;DHT22;6087;48.982;12.064;2022-08-01T02:16:57;20.90;89.10
12053;DHT22;6087;48.982;12.064;2022-08-01T02:19:26;20.90;88.80
12053;DHT22;6087;48.982;12.064;2022-08-01T02:21:57;20.90;88.70
12053;DHT22;6087;48.982;12.064;2022-08-01T02:24:31;20.90;88.80
12053;DHT22;6087;48.982;12.064;2022-08-01T02:27:07;20.90;88.30
12053;DHT22;6087;48.982;12.064;2022-08-01T02:29:39;20.90;88.40
12053;DHT22;6087;48.982;12.064;2022-08-01T02:32:12;20.90;88.00
12053;DHT22;6087;48.982;12.064;2022-08-01T02:34:41;20.90;87.90
12053;DHT22;6087;48.982;12.064;2022-08-01T02:37:10;20.90;88.00
12053;DHT22;6087;48.982;12.064;2022-08-01T02:39:37;20.90;88.20
12053;DHT22;6087;48.982;12.064;2022-08-01T02:42:07;20.90;88.10
12053;DHT22;6087;48.982;12.064;2022-08-01T02:44:38;20.90;87.80
12053;DHT22;6087;48.982;12.064;2022-08-01T02:47:07;20.90;87.70
12053;DHT22;6087;48.982;12.064;2022-08-01T02:49:39;20.90;87.70
12053;DHT22;6087;48.982;12.064;2022-08-01T02:52:12;20.80;89.20
12053;DHT22;6087;48.982;12.064;2022-08-01T02:54:39;20.70;89.50
12053;DHT22;6087;48.982;12.064;2022-08-01T02:57:08;20.70;88.60
12053;DHT22;6087;48.982;12.064;2022-08-01T02:59:37;20.70;89.30
12053;DHT22;6087;48.982;12.064;2022-08-01T03:02:05;20.70;90.00
12053;DHT22;6087;48.982;12.064;2022-08-01T03:04:36;20.60;89.70
12053;DHT22;6087;48.982;12.064;2022-08-01T03:07:06;20.60;89.70
12053;DHT22;6087;48.982;12.064;2022-08-01T03:09:38;20.60;89.70
12053;DHT22;6087;48.982;12.064;2022-08-01T03:12:10;20.60;90.00
12053;DHT22;6087;48.982;12.064;2022-08-01T03:14:39;20.60;90.10
12053;DHT22;6087;48.982;12.064;2022-08-01T03:17:08;20.60;90.10
12053;DHT22;6087;48.982;12.064;2022-08-01T03:19:38;20.50;90.10
12053;DHT22;6087;48.982;12.064;2022-08-01T03:22:07;20.60;90.00
12053;DHT22;6087;48.982;12.064;2022-08-01T03:24:36;20.60;90.00
12053;DHT22;6087;48.982;12.064;2022-08-01T03:27:04;20.60;89.70
12053;DHT22;6087;48.982;12.064;2022-08-01T03:29:33;20.60;90.00
12053;DHT22;6087;48.982;12.064;2022-08-01T03:32:01;20.60;89.50
12053;DHT22;6087;48.982;12.064;2022-08-01T03:34:28;20.60;89.70
12053;DHT22;6087;48.982;12.064;2022-08-01T03:37:01;20.60;89.60
12053;DHT22;6087;48.982;12.064;2022-08-01T03:39:33;20.60;90.00
12053;DHT22;6087;48.982;12.064;2022-08-01T03:42:05;20.60;89.80
12053;DHT22;6087;48.982;12.064;2022-08-01T03:44:35;20.70;90.00
12053;DHT22;6087;48.982;12.064;2022-08-01T03:47:06;20.70;89.90
12053;DHT22;6087;48.982;12.064;2022-08-01T03:49:37;20.70;90.00
12053;DHT22;6087;48.982;12.064;2022-08-01T03:52:08;20.60;90.10
12053;DHT22;6087;48.982;12.064;2022-08-01T03:54:37;20.60;90.20
12053;DHT22;6087;48.982;12.064;2022-08-01T03:57:05;20.60;90.30
12053;DHT22;6087;48.982;12.064;2022-08-01T03:59:34;20.60;90.20
12053;DHT22;6087;48.982;12.064;2022-08-01T04:02:03;20.70;90.30
12053;DHT22;6087;48.982;12.064;2022-08-01T04:04:30;20.70;90.10
12053;DHT22;6087;48.982;12.064;2022-08-01T04:06:57;20.70;90.20
12053;DHT22;6087;48.982;12.064;2022-08-01T04:09:31;20.70;90.20
12053;DHT22;6087;48.982;12.064;2022-08-01T04:11:58;20.70;90.20
12053;DHT22;6087;48.982;12.064;2022-08-01T04:14:25;20.70;90.20
12053;DHT22;6087;48.982;12.064;2022-08-01T04:16:53;20.80;90.20
12053;DHT22;6087;48.982;12.064;2022-08-01T04:19:20;20.80;90.30
12053;DHT22;6087;48.982;12.064;2022-08-01T04:21:47;20.80;90.40
12053;DHT22;6087;48.982;12.064;2022-08-01T04:24:17;20.80;90.40
12053;DHT22;6087;48.982;12.064;2022-08-01T04:26:47;20.80;90.50
12053;DHT22;6087;48.982;12.064;2022-08-01T04:29:16;20.80;90.50
12053;DHT22;6087;48.982;12.064;2022-08-01T04:31:46;20.80;90.50
12053;DHT22;6087;48.982;12.064;2022-08-01T04:34:17;20.80;90.60
12053;DHT22;6087;48.982;12.064;2022-08-01T04:36:47;20.80;90.70
12053;DHT22;6087;48.982;12.064;2022-08-01T04:39:16;20.70;90.80
12053;DHT22;6087;48.982;12.064;2022-08-01T04:41:47;20.80;90.90
12053;DHT22;6087;48.982;12.064;2022-08-01T04:44:15;20.70;90.90
12053;DHT22;6087;48.982;12.064;2022-08-01T04:46:43;20.80;91.10
12053;DHT22;6087;48.982;12.064;2022-08-01T04:49:14;20.80;91.10
12053;DHT22;6087;48.982;12.064;2022-08-01T04:51:50;20.80;91.20
12053;DHT22;6087;48.982;12.064;2022-08-01T04:54:18;20.80;91.20
12053;DHT22;6087;48.982;12.064;2022-08-01T04:56:48;20.80;91.30
12053;DHT22;6087;48.982;12.064;2022-08-01T04:59:15;20.80;91.30
12053;DHT22;6087;48.982;12.064;2022-08-01T05:01:59;20.90;91.50
12053;DHT22;6087;48.982;12.064;2022-08-01T05:04:26;20.90;91.80
12053;DHT22;6087;48.982;12.064;2022-08-01T05:06:53;20.90;91.60
12053;DHT22;6087;48.982;12.064;2022-08-01T05:09:20;20.90;91.70
12053;DHT22;6087;48.982;12.064;2022-08-01T05:11:48;20.90;91.70
12053;DHT22;6087;48.982;12.064;2022-08-01T05:14:15;20.90;91.80
12053;DHT22;6087;48.982;12.064;2022-08-01T05:16:42;20.90;92.00
12053;DHT22;6087;48.982;12.064;2022-08-01T05:19:09;20.90;92.10
12053;DHT22;6087;48.982;12.064;2022-08-01T05:21:36;20.90;92.10
12053;DHT22;6087;48.982;12.064;2022-08-01T05:24:04;20.90;92.30
12053;DHT22;6087;48.982;12.064;2022-08-01T05:26:31;20.90;92.50
12053;DHT22;6087;48.982;12.064;2022-08-01T05:29:00;20.90;92.60
12053;DHT22;6087;48.982;12.064;2022-08-01T05:31:27;21.00;92.80
12053;DHT22;6087;48.982;12.064;2022-08-01T05:33:55;21.10;92.90
12053;DHT22;6087;48.982;12.064;2022-08-01T05:36:22;21.10;93.00
12053;DHT22;6087;48.982;12.064;2022-08-01T05:38:48;21.10;93.00
12053;DHT22;6087;48.982;12.064;2022-08-01T05:41:15;21.20;93.10
12053;DHT22;6087;48.982;12.064;2022-08-01T05:43:42;21.30;93.30
12053;DHT22;6087;48.982;12.064;2022-08-01T05:46:10;21.40;93.40
12053;DHT22;6087;48.982;12.064;2022-08-01T05:48:37;21.40;93.40
12053;DHT22;6087;48.982;12.064;2022-08-01T05:51:04;21.50;93.70
12053;DHT22;6087;48.982;12.064;2022-08-01T05:53:31;21.50;93.80
12053;DHT22;6087;48.982;12.064;2022-08-01T05:55:59;21.60;93.50
12053;DHT22;6087;48.982;12.064;2022-08-01T05:58:26;21.50;93.70
12053;DHT22;6087;48.982;12.064;2022-08-01T06:00:53;21.60;93.80
12053;DHT22;6087;48.982;12.064;2022-08-01T06:03:21;21.60;94.20
12053;DHT22;6087;48.982;12.064;2022-08-01T06:05:48;21.70;94.60
12053;DHT22;6087;48.982;12.064;2022-08-01T06:08:15;21.80;94.60
12053;DHT22;6087;48.982;12.064;2022-08-01T06:10:42;21.90;94.50
12053;DHT22;6087;48.982;12.064;2022-08-01T06:13:09;21.90;94.50
12053;DHT22;6087;48.982;12.064;2022-08-01T06:15:36;22.00;94.40
12053;DHT22;6087;48.982;12.064;2022-08-01T06:18:03;22.00;94.40
12053;DHT22;6087;48.982;12.064;2022-08-01T06:20:31;22.10;95.00
12053;DHT22;6087;48.982;12.064;2022-08-01T06:22:58;22.10;94.90
12053;DHT22;6087;48.982;12.064;2022-08-01T06:25:25;22.20;95.00
12053;DHT22;6087;48.982;12.064;2022-08-01T06:27:52;22.20;94.70
12053;DHT22;6087;48.982;12.064;2022-08-01T06:30:19;22.20;94.90
12053;DHT22;6087;48.982;12.064;2022-08-01T06:32:46;22.20;95.30
12053;DHT22;6087;48.982;12.064;2022-08-01T06:35:14;22.30;95.50
12053;DHT22;6087;48.982;12.064;2022-08-01T06:37:42;22.30;95.30
12053;DHT22;6087;48.982;12.064;2022-08-01T06:40:11;22.30;95.60
12053;DHT22;6087;48.982;12.064;2022-08-01T06:42:38;22.30;95.40
12053;DHT22;6087;48.982;12.064;2022-08-01T06:45:07;22.30;95.60
12053;DHT22;6087;48.982;12.064;2022-08-01T06:47:34;22.40;95.30
12053;DHT22;6087;48.982;12.064;2022-08-01T06:50:01;22.40;95.50
12053;DHT22;6087;48.982;12.064;2022-08-01T06:52:28;22.40;95.70
12053;DHT22;6087;48.982;12.064;2022-08-01T06:54:56;22.50;95.50
12053;DHT22;6087;48.982;12.064;2022-08-01T06:57:23;22.60;95.30
12053;DHT22;6087;48.982;12.064;2022-08-01T06:59:50;22.60;95.30
12053;DHT22;6087;48.982;12.064;2022-08-01T07:02:16;22.60;95.30
12053;DHT22;6087;48.982;12.064;2022-08-01T07:04:43;22.70;95.60
12053;DHT22;6087;48.982;12.064;2022-08-01T07:07:10;22.80;95.60
12053;DHT22;6087;48.982;12.064;2022-08-01T07:09:37;22.80;95.50
12053;DHT22;6087;48.982;12.064;2022-08-01T07:12:07;22.90;95.40
12053;DHT22;6087;48.982;12.064;2022-08-01T07:14:35;22.90;95.60
12053;DHT22;6087;48.982;12.064;2022-08-01T07:17:01;22.90;95.60
12053;DHT22;6087;48.982;12.064;2022-08-01T07:19:28;23.00;95.50
12053;DHT22;6087;48.982;12.064;2022-08-01T07:21:55;23.00;95.50
12053;DHT22;6087;48.982;12.064;2022-08-01T07:24:22;23.10;95.30
12053;DHT22;6087;48.982;12.064;2022-08-01T07:26:49;23.10;95.30
12053;DHT22;6087;48.982;12.064;2022-08-01T07:29:17;23.10;95.70
12053;DHT22;6087;48.982;12.064;2022-08-01T07:31:44;23.10;95.30
12053;DHT22;6087;48.982;12.064;2022-08-01T07:34:11;23.20;95.40
12053;DHT22;6087;48.982;12.064;2022-08-01T07:36:38;23.20;95.10
12053;DHT22;6087;48.982;12.064;2022-08-01T07:39:05;23.20;95.10
12053;DHT22;6087;48.982;12.064;2022-08-01T07:41:32;23.20;95.00
12053;DHT22;6087;48.982;12.064;2022-08-01T07:43:59;23.20;95.10
12053;DHT22;6087;48.982;12.064;2022-08-01T07:46:27;23.20;95.10
12053;DHT22;6087;48.982;12.064;2022-08-01T07:48:55;23.20;95.10
12053;DHT22;6087;48.982;12.064;2022-08-01T07:51:22;23.30;95.30
12053;DHT22;6087;48.982;12.064;2022-08-01T07:53:49;23.20;95.30
12053;DHT22;6087;48.982;12.064;2022-08-01T07:56:16;23.30;95.50
12053;DHT22;6087;48.982;12.064;2022-08-01T07:58:43;23.30;95.80
12053;DHT22;6087;48.982;12.064;2022-08-01T08:01:11;23.30;95.40
12053;DHT22;6087;48.982;12.064;2022-08-01T08:03:40;23.30;95.20
12053;DHT22;6087;48.982;12.064;2022-08-01T08:06:07;23.30;95.40
12053;DHT22;6087;48.982;12.064;2022-08-01T08:08:33;23.30;95.10
12053;DHT22;6087;48.982;12.064;2022-08-01T08:11:00;23.40;95.80
12053;DHT22;6087;48.982;12.064;2022-08-01T08:13:27;23.50;95.20
12053;DHT22;6087;48.982;12.064;2022-08-01T08:15:54;23.50;95.00
12053;DHT22;6087;48.982;12.064;2022-08-01T08:18:23;23.60;95.30
12053;DHT22;6087;48.982;12.064;2022-08-01T08:20:51;23.60;94.90
12053;DHT22;6087;48.982;12.064;2022-08-01T08:23:18;23.70;95.00
12053;DHT22;6087;48.982;12.064;2022-08-01T08:26:03;23.70;94.80
12053;DHT22;6087;48.982;12.064;2022-08-01T08:28:29;23.80;94.90
12053;DHT22;6087;48.982;12.064;2022-08-01T08:30:56;23.90;94.50
12053;DHT22;6087;48.982;12.064;2022-08-01T08:33:23;23.90;94.30
12053;DHT22;6087;48.982;12.064;2022-08-01T08:35:52;23.90;94.00
12053;DHT22;6087;48.982;12.064;2022-08-01T08:38:19;23.90;94.20
12053;DHT22;6087;48.982;12.064;2022-08-01T08:40:46;23.90;94.20
12053;DHT22;6087;48.982;12.064;2022-08-01T08:43:15;23.80;93.90
12053;DHT22;6087;48.982;12.064;2022-08-01T08:45:43;23.70;94.10
12053;DHT22;6087;48.982;12.064;2022-08-01T08:48:11;23.70;94.10
12053;DHT22;6087;48.982;12.064;2022-08-01T08:50:41;23.70;94.30
12053;DHT22;6087;48.982;12.064;2022-08-01T08:53:10;23.80;94.60
12053;DHT22;6087;48.982;12.064;2022-08-01T08:55:39;23.80;94.30
12053;DHT22;6087;48.982;12.064;2022-08-01T08:58:10;23.80;94.70
12053;DHT22;6087;48.982;12.064;2022-08-01T09:00:38;23.80;94.70
12053;DHT22;6087;48.982;12.064;2022-08-01T09:03:05;23.90;93.60
12053;DHT22;6087;48.982;12.064;2022-08-01T09:05:32;23.90;93.80
12053;DHT22;6087;48.982;12.064;2022-08-01T09:07:59;24.00;93.50
12053;DHT22;6087;48.982;12.064;2022-08-01T09:10:28;24.10;93.50
12053;DHT22;6087;48.982;12.064;2022-08-01T09:13:06;24.10;93.20
12053;DHT22;6087;48.982;12.064;2022-08-01T09:15:44;24.10;93.10
12053;DHT22;6087;48.982;12.064;2022-08-01T09:18:26;24.00;93.40
12053;DHT22;6087;48.982;12.064;2022-08-01T09:21:08;24.10;93.50
12053;DHT22;6087;48.982;12.064;2022-08-01T09:23:36;24.20;93.10
12053;DHT22;6087;48.982;12.064;2022-08-01T09:26:06;24.20;93.00
12053;DHT22;6087;48.982;12.064;2022-08-01T09:28:34;24.20;93.00
12053;DHT22;6087;48.982;12.064;2022-08-01T09:31:06;24.20;92.90
12053;DHT22;6087;48.982;12.064;2022-08-01T09:33:48;24.20;93.00
12053;DHT22;6087;48.982;12.064;2022-08-01T09:36:15;24.40;92.60
12053;DHT22;6087;48.982;12.064;2022-08-01T09:38:42;24.40;92.50
12053;DHT22;6087;48.982;12.064;2022-08-01T09:41:10;24.40;91.70
12053;DHT22;6087;48.982;12.064;2022-08-01T09:43:37;24.40;91.80
12053;DHT22;6087;48.982;12.064;2022-08-01T09:46:08;24.30;91.20
12053;DHT22;6087;48.982;12.064;2022-08-01T09:48:36;24.30;91.70
12053;DHT22;6087;48.982;12.064;2022-08-01T09:51:05;24.40;91.10
12053;DHT22;6087;48.982;12.064;2022-08-01T09:53:44;24.40;91.20
12053;DHT22;6087;48.982;12.064;2022-08-01T09:56:13;24.40;91.70
12053;DHT22;6087;48.982;12.064;2022-08-01T09:58:51;24.60;91.90
12053;DHT22;6087;48.982;12.064;2022-08-01T10:01:20;24.60;91.00
12053;DHT22;6087;48.982;12.064;2022-08-01T10:03:47;24.60;90.90
12053;DHT22;6087;48.982;12.064;2022-08-01T10:06:29;24.70;90.20
12053;DHT22;6087;48.982;12.064;2022-08-01T10:08:56;24.60;90.10
12053;DHT22;6087;48.982;12.064;2022-08-01T10:11:24;24.60;90.00
12053;DHT22;6087;48.982;12.064;2022-08-01T10:13:52;24.60;90.40
12053;DHT22;6087;48.982;12.064;2022-08-01T10:16:19;24.70;91.00
12053;DHT22;6087;48.982;12.064;2022-08-01T10:18:46;24.70;91.40
12053;DHT22;6087;48.982;12.064;2022-08-01T10:21:13;24.80;90.60
12053;DHT22;6087;48.982;12.064;2022-08-01T10:23:41;24.80;90.30
12053;DHT22;6087;48.982;12.064;2022-08-01T10:26:12;24.70;90.40
12053;DHT22;6087;48.982;12.064;2022-08-01T10:28:41;24.70;90.50
12053;DHT22;6087;48.982;12.064;2022-08-01T10:31:11;24.70;89.90
12053;DHT22;6087;48.982;12.064;2022-08-01T10:33:39;24.80;89.00
12053;DHT22;6087;48.982;12.064;2022-08-01T10:36:07;24.80;88.50
12053;DHT22;6087;48.982;12.064;2022-08-01T10:38:35;24.80;88.90
12053;DHT22;6087;48.982;12.064;2022-08-01T10:41:03;25.00;87.20
12053;DHT22;6087;48.982;12.064;2022-08-01T10:43:30;25.10;86.40
12053;DHT22;6087;48.982;12.064;2022-08-01T10:45:58;25.20;85.90
12053;DHT22;6087;48.982;12.064;2022-08-01T10:48:31;25.10;85.40
12053;DHT22;6087;48.982;12.064;2022-08-01T10:51:02;25.10;85.20
12053;DHT22;6087;48.982;12.064;2022-08-01T10:53:29;25.00;84.40
12053;DHT22;6087;48.982;12.064;2022-08-01T10:55:59;24.90;84.70
12053;DHT22;6087;48.982;12.064;2022-08-01T10:58:29;24.90;85.10
12053;DHT22;6087;48.982;12.064;2022-08-01T11:01:17;24.90;85.30
12053;DHT22;6087;48.982;12.064;2022-08-01T11:04:02;24.90;85.20
12053;DHT22;6087;48.982;12.064;2022-08-01T11:06:40;25.00;84.50
12053;DHT22;6087;48.982;12.064;2022-08-01T11:09:29;24.90;84.30
12053;DHT22;6087;48.982;12.064;2022-08-01T11:11:59;25.00;83.30
12053;DHT22;6087;48.982;12.064;2022-08-01T11:14:27;24.90;82.80
12053;DHT22;6087;48.982;12.064;2022-08-01T11:16:56;24.90;82.40
12053;DHT22;6087;48.982;12.064;2022-08-01T11:20:06;24.90;83.50
12053;DHT22;6087;48.982;12.064;2022-08-01T11:26:20;24.90;83.60
12053;DHT22;6087;48.982;12.064;2022-08-01T11:29:13;25.00;83.20
12053;DHT22;6087;48.982;12.064;2022-08-01T11:31:40;25.10;83.10
12053;DHT22;6087;48.982;12.064;2022-08-01T11:34:08;25.30;85.60
12053;DHT22;6087;48.982;12.064;2022-08-01T11:36:36;25.60;84.70
12053;DHT22;6087;48.982;12.064;2022-08-01T11:39:13;25.60;81.50
12053;DHT22;6087;48.982;12.064;2022-08-01T11:41:41;25.60;80.50
12053;DHT22;6087;48.982;12.064;2022-08-01T11:44:10;25.50;80.30
12053;DHT22;6087;48.982;12.064;2022-08-01T11:46:55;25.50;81.00
12053;DHT22;6087;48.982;12.064;2022-08-01T11:49:42;25.60;80.90
12053;DHT22;6087;48.982;12.064;2022-08-01T11:52:12;25.70;79.80
12053;DHT22;6087;48.982;12.064;2022-08-01T11:54:42;25.70;79.50
12053;DHT22;6087;48.982;12.064;2022-08-01T11:57:11;25.80;80.10
12053;DHT22;6087;48.982;12.064;2022-08-01T11:59:41;25.90;79.70
12053;DHT22;6087;48.982;12.064;2022-08-01T12:02:19;25.90;80.20
12053;DHT22;6087;48.982;12.064;2022-08-01T12:04:53;26.00;78.80
12053;DHT22;6087;48.982;12.064;2022-08-01T12:07:22;26.00;77.50
12053;DHT22;6087;48.982;12.064;2022-08-01T12:09:57;25.90;78.20
12053;DHT22;6087;48.982;12.064;2022-08-01T12:12:24;25.90;77.80
12053;DHT22;6087;48.982;12.064;2022-08-01T12:14:55;25.80;77.70
12053;DHT22;6087;48.982;12.064;2022-08-01T12:17:29;25.70;77.60
12053;DHT22;6087;48.982;12.064;2022-08-01T12:19:57;25.70;79.10
12053;DHT22;6087;48.982;12.064;2022-08-01T12:22:24;25.80;78.20
12053;DHT22;6087;48.982;12.064;2022-08-01T12:24:53;25.80;76.70
12053;DHT22;6087;48.982;12.064;2022-08-01T12:27:28;25.80;76.80
12053;DHT22;6087;48.982;12.064;2022-08-01T12:29:55;25.90;77.60
12053;DHT22;6087;48.982;12.064;2022-08-01T12:32:25;25.80;76.20
12053;DHT22;6087;48.982;12.064;2022-08-01T12:34:53;25.70;75.80
12053;DHT22;6087;48.982;12.064;2022-08-01T12:37:22;25.70;75.90
12053;DHT22;6087;48.982;12.064;2022-08-01T12:39:49;25.70;75.70
12053;DHT22;6087;48.982;12.064;2022-08-01T12:42:16;25.70;74.30
12053;DHT22;6087;48.982;12.064;2022-08-01T12:44:45;25.70;74.00
12053;DHT22;6087;48.982;12.064;2022-08-01T12:47:13;25.60;74.00
12053;DHT22;6087;48.982;12.064;2022-08-01T12:49:42;25.60;74.20
12053;DHT22;6087;48.982;12.064;2022-08-01T12:52:11;25.70;74.30
12053;DHT22;6087;48.982;12.064;2022-08-01T12:55:06;25.80;74.50
12053;DHT22;6087;48.982;12.064;2022-08-01T12:57:34;25.90;75.60
12053;DHT22;6087;48.982;12.064;2022-08-01T13:00:15;26.10;75.00
12053;DHT22;6087;48.982;12.064;2022-08-01T13:02:44;26.40;73.70
12053;DHT22;6087;48.982;12.064;2022-08-01T13:05:14;26.50;73.40
12053;DHT22;6087;48.982;12.064;2022-08-01T13:07:43;26.50;72.60
12053;DHT22;6087;48.982;12.064;2022-08-01T13:10:13;26.50;71.90
12053;DHT22;6087;48.982;12.064;2022-08-01T13:12:41;26.50;70.90
12053;DHT22;6087;48.982;12.064;2022-08-01T13:15:23;26.50;72.40
12053;DHT22;6087;48.982;12.064;2022-08-01T13:17:50;26.50;71.90
12053;DHT22;6087;48.982;12.064;2022-08-01T13:20:26;26.50;71.90
12053;DHT22;6087;48.982;12.064;2022-08-01T13:22:53;26.50;70.60
12053;DHT22;6087;48.982;12.064;2022-08-01T13:25:21;26.40;71.00
12053;DHT22;6087;48.982;12.064;2022-08-01T13:27:48;26.50;70.60
12053;DHT22;6087;48.982;12.064;2022-08-01T13:30:17;26.70;69.40
12053;DHT22;6087;48.982;12.064;2022-08-01T13:32:57;26.80;68.00
12053;DHT22;6087;48.982;12.064;2022-08-01T13:35:24;27.00;67.80
12053;DHT22;6087;48.982;12.064;2022-08-01T13:37:51;27.20;67.70
12053;DHT22;6087;48.982;12.064;2022-08-01T13:40:26;27.40;69.20
12053;DHT22;6087;48.982;12.064;2022-08-01T13:42:53;27.60;66.40
12053;DHT22;6087;48.982;12.064;2022-08-01T13:45:22;27.70;64.90
12053;DHT22;6087;48.982;12.064;2022-08-01T13:47:49;27.80;66.60
12053;DHT22;6087;48.982;12.064;2022-08-01T13:50:16;28.00;65.90
12053;DHT22;6087;48.982;12.064;2022-08-01T13:52:43;28.00;64.90
12053;DHT22;6087;48.982;12.064;2022-08-01T13:55:09;28.00;64.40
12053;DHT22;6087;48.982;12.064;2022-08-01T13:57:38;28.00;63.60
12053;DHT22;6087;48.982;12.064;2022-08-01T14:00:07;28.10;61.20
12053;DHT22;6087;48.982;12.064;2022-08-01T14:02:35;27.90;60.20
12053;DHT22;6087;48.982;12.064;2022-08-01T14:05:02;27.90;59.00
12053;DHT22;6087;48.982;12.064;2022-08-01T14:07:29;28.00;59.80
12053;DHT22;6087;48.982;12.064;2022-08-01T14:09:56;28.10;59.50
12053;DHT22;6087;48.982;12.064;2022-08-01T14:12:22;28.10;60.50
12053;DHT22;6087;48.982;12.064;2022-08-01T14:14:51;28.20;59.40
12053;DHT22;6087;48.982;12.064;2022-08-01T14:17:18;28.20;61.60
12053;DHT22;6087;48.982;12.064;2022-08-01T14:19:45;28.40;62.80
12053;DHT22;6087;48.982;12.064;2022-08-01T14:22:11;28.50;61.30
12053;DHT22;6087;48.982;12.064;2022-08-01T14:24:38;28.70;61.30
12053;DHT22;6087;48.982;12.064;2022-08-01T14:27:05;28.80;57.70
12053;DHT22;6087;48.982;12.064;2022-08-01T14:29:32;28.60;55.70
12053;DHT22;6087;48.982;12.064;2022-08-01T14:32:00;28.60;56.10
12053;DHT22;6087;48.982;12.064;2022-08-01T14:34:27;28.40;57.60
12053;DHT22;6087;48.982;12.064;2022-08-01T14:36:54;28.40;58.00
12053;DHT22;6087;48.982;12.064;2022-08-01T14:39:21;28.50;58.00
12053;DHT22;6087;48.982;12.064;2022-08-01T14:41:48;28.50;56.60
12053;DHT22;6087;48.982;12.064;2022-08-01T14:44:14;28.50;54.80
12053;DHT22;6087;48.982;12.064;2022-08-01T14:46:41;28.60;58.20
12053;DHT22;6087;48.982;12.064;2022-08-01T14:49:11;28.60;55.80
12053;DHT22;6087;48.982;12.064;2022-08-01T14:51:38;28.70;54.20
12053;DHT22;6087;48.982;12.064;2022-08-01T14:54:05;28.50;51.80
12053;DHT22;6087;48.982;12.064;2022-08-01T14:56:32;28.50;53.00
12053;DHT22;6087;48.982;12.064;2022-08-01T14:58:59;28.40;52.50
12053;DHT22;6087;48.982;12.064;2022-08-01T15:01:26;28.40;53.70
12053;DHT22;6087;48.982;12.064;2022-08-01T15:03:53;28.30;52.80
12053;DHT22;6087;48.982;12.064;2022-08-01T15:06:22;28.30;50.40
12053;DHT22;6087;48.982;12.064;2022-08-01T15:08:49;28.30;50.10
12053;DHT22;6087;48.982;12.064;2022-08-01T15:11:16;28.40;49.00
12053;DHT22;6087;48.982;12.064;2022-08-01T15:13:43;28.30;48.90
12053;DHT22;6087;48.982;12.064;2022-08-01T15:16:10;28.30;49.30
12053;DHT22;6087;48.982;12.064;2022-08-01T15:18:37;28.30;50.10
12053;DHT22;6087;48.982;12.064;2022-08-01T15:21:04;28.30;49.40
12053;DHT22;6087;48.982;12.064;2022-08-01T15:23:32;28.20;48.70
12053;DHT22;6087;48.982;12.064;2022-08-01T15:25:59;28.20;48.00
12053;DHT22;6087;48.982;12.064;2022-08-01T15:28:26;28.30;48.90
12053;DHT22;6087;48.982;12.064;2022-08-01T15:30:53;28.30;45.60
12053;DHT22;6087;48.982;12.064;2022-08-01T15:33:20;28.30;45.30
12053;DHT22;6087;48.982;12.064;2022-08-01T15:35:47;28.30;46.50
12053;DHT22;6087;48.982;12.064;2022-08-01T15:38:14;28.40;49.20
12053;DHT22;6087;48.982;12.064;2022-08-01T15:40:42;28.40;46.00
12053;DHT22;6087;48.982;12.064;2022-08-01T15:43:09;28.50;45.00
12053;DHT22;6087;48.982;12.064;2022-08-01T15:45:36;28.40;44.50
12053;DHT22;6087;48.982;12.064;2022-08-01T15:48:04;28.40;46.80
12053;DHT22;6087;48.982;12.064;2022-08-01T15:50:30;28.40;45.40